sensor_id;sensor_type;location;lat;lon;timestamp;pressure;altitude;pressure_sealevel;temperature;humidity
46598;BME280;32318;48.858;8.252;2022-10-13T00:06:56;100835.06;;;12.11;79.17
46598;BME280;32318;48.858;8.252;2022-10-13T00:14:56;100818.63;;;12.05;79.46
46598;BME280;32318;48.858;8.252;2022-10-13T00:22:57;100819.78;;;12.03;78.96
46598;BME280;32318;48.858;8.252;2022-10-13T00:30:58;100823.31;;;12.03;79.11
46598;BME280;32318;48.858;8.252;2022-10-13T00:38:59;100818.44;;;11.99;79.35
46598;BME280;32318;48.858;8.252;2022-10-13T00:46:59;100817.88;;;11.95;79.65
46598;BME280;32318;48.858;8.252;2022-10-13T00:55:00;100807.78;;;11.89;79.67
46598;BME280;32318;48.858;8.252;2022-10-13T01:03:02;100808.97;;;11.86;79.97
46598;BME280;32318;48.858;8.252;2022-10-13T01:11:10;100796.44;;;11.87;79.92
46598;BME280;32318;48.858;8.252;2022-10-13T01:36:26;100788.03;;;11.82;79.82
46598;BME280;32318;48.858;8.252;2022-10-13T01:44:33;100783.72;;;11.89;79.99
46598;BME280;32318;48.858;8.252;2022-10-13T01:52:37;100785.34;;;12.00;79.72
46598;BME280;32318;48.858;8.252;2022-10-13T02:00:41;100792.03;;;12.04;80.26
46598;BME280;32318;48.858;8.252;2022-10-13T02:08:57;100795.69;;;12.03;80.59
46598;BME280;32318;48.858;8.252;2022-10-13T02:17:01;100796.69;;;12.02;80.82
46598;BME280;32318;48.858;8.252;2022-10-13T02:25:03;100789.50;;;12.02;81.14
46598;BME280;32318;48.858;8.252;2022-10-13T02:33:04;100790.84;;;12.06;80.89
46598;BME280;32318;48.858;8.252;2022-10-13T02:41:04;100794.91;;;12.11;80.57
46598;BME280;32318;48.858;8.252;2022-10-13T02:49:05;100780.00;;;12.08;80.43
46598;BME280;32318;48.858;8.252;2022-10-13T02:57:05;100768.78;;;12.04;80.66
46598;BME280;32318;48.858;8.252;2022-10-13T03:05:05;100753.38;;;12.06;80.52
46598;BME280;32318;48.858;8.252;2022-10-13T03:13:06;100766.25;;;12.03;80.74
46598;BME280;32318;48.858;8.252;2022-10-13T03:21:06;100759.03;;;11.95;80.96
46598;BME280;32318;48.858;8.252;2022-10-13T03:29:12;100768.03;;;11.94;81.18
46598;BME280;32318;48.858;8.252;2022-10-13T03:37:12;100757.16;;;11.96;81.44
46598;BME280;32318;48.858;8.252;2022-10-13T03:45:13;100749.31;;;11.94;81.41
46598;BME280;32318;48.858;8.252;2022-10-13T03:53:13;100758.16;;;11.95;81.49
46598;BME280;32318;48.858;8.252;2022-10-13T04:01:13;100766.06;;;11.96;81.68
46598;BME280;32318;48.858;8.252;2022-10-13T04:09:14;100763.50;;;11.95;82.47
46598;BME280;32318;48.858;8.252;2022-10-13T04:17:14;100754.22;;;11.99;82.75
46598;BME280;32318;48.858;8.252;2022-10-13T04:25:14;100749.84;;;11.98;82.65
46598;BME280;32318;48.858;8.252;2022-10-13T04:33:15;100756.03;;;11.98;82.63
46598;BME280;32318;48.858;8.252;2022-10-13T04:41:17;100749.38;;;12.02;82.37
46598;BME280;32318;48.858;8.252;2022-10-13T04:49:17;100740.19;;;12.05;82.15
46598;BME280;32318;48.858;8.252;2022-10-13T04:57:18;100741.19;;;12.04;81.55
46598;BME280;32318;48.858;8.252;2022-10-13T05:05:18;100734.94;;;11.95;81.86
46598;BME280;32318;48.858;8.252;2022-10-13T05:13:18;100720.50;;;11.88;81.00
46598;BME280;32318;48.858;8.252;2022-10-13T05:21:22;100695.56;;;11.79;81.94
46598;BME280;32318;48.858;8.252;2022-10-13T05:29:22;100682.00;;;11.81;82.03
46598;BME280;32318;48.858;8.252;2022-10-13T05:37:23;100681.38;;;11.79;82.25
46598;BME280;32318;48.858;8.252;2022-10-13T05:45:23;100684.69;;;11.81;81.96
46598;BME280;32318;48.858;8.252;2022-10-13T05:53:32;100684.34;;;11.75;82.49
46598;BME280;32318;48.858;8.252;2022-10-13T06:01:36;100689.00;;;11.73;82.57
46598;BME280;32318;48.858;8.252;2022-10-13T06:09:39;100707.44;;;11.76;82.66
46598;BME280;32318;48.858;8.252;2022-10-13T06:17:39;100690.53;;;11.76;82.61
46598;BME280;32318;48.858;8.252;2022-10-13T06:25:50;100698.06;;;11.81;82.78
46598;BME280;32318;48.858;8.252;2022-10-13T06:33:50;100705.78;;;11.84;82.48
46598;BME280;32318;48.858;8.252;2022-10-13T06:41:50;100718.66;;;11.80;81.87
46598;BME280;32318;48.858;8.252;2022-10-13T06:49:51;100727.00;;;11.85;83.19
46598;BME280;32318;48.858;8.252;2022-10-13T06:57:52;100708.00;;;11.97;81.67
46598;BME280;32318;48.858;8.252;2022-10-13T07:05:52;100700.97;;;11.96;83.02
46598;BME280;32318;48.858;8.252;2022-10-13T07:13:52;100707.88;;;12.06;82.75
46598;BME280;32318;48.858;8.252;2022-10-13T07:21:53;100710.44;;;12.16;82.76
46598;BME280;32318;48.858;8.252;2022-10-13T07:29:53;100709.81;;;12.31;82.72
46598;BME280;32318;48.858;8.252;2022-10-13T07:37:53;100704.28;;;12.40;82.36
46598;BME280;32318;48.858;8.252;2022-10-13T07:45:54;100690.91;;;12.49;82.64
46598;BME280;32318;48.858;8.252;2022-10-13T07:53:54;100701.47;;;12.50;82.52
46598;BME280;32318;48.858;8.252;2022-10-13T08:01:54;100691.44;;;12.52;82.35
46598;BME280;32318;48.858;8.252;2022-10-13T08:09:55;100689.91;;;12.66;82.86
46598;BME280;32318;48.858;8.252;2022-10-13T08:17:55;100693.28;;;12.77;82.70
46598;BME280;32318;48.858;8.252;2022-10-13T08:25:56;100688.28;;;12.90;82.91
46598;BME280;32318;48.858;8.252;2022-10-13T08:33:56;100688.41;;;13.13;81.97
46598;BME280;32318;48.858;8.252;2022-10-13T08:41:56;100682.84;;;13.31;81.19
46598;BME280;32318;48.858;8.252;2022-10-13T08:50:00;100691.38;;;13.43;81.65
46598;BME280;32318;48.858;8.252;2022-10-13T08:58:10;100695.53;;;13.54;81.36
46598;BME280;32318;48.858;8.252;2022-10-13T09:06:14;100700.25;;;13.60;81.23
46598;BME280;32318;48.858;8.252;2022-10-13T09:14:25;100710.28;;;13.67;81.24
46598;BME280;32318;48.858;8.252;2022-10-13T09:22:37;100693.47;;;13.73;80.68
46598;BME280;32318;48.858;8.252;2022-10-13T09:30:40;100688.78;;;13.75;80.53
46598;BME280;32318;48.858;8.252;2022-10-13T09:39:34;100684.72;;;13.79;80.57
46598;BME280;32318;48.858;8.252;2022-10-13T09:47:29;100684.34;;;13.90;80.49
46598;BME280;32318;48.858;8.252;2022-10-13T09:55:31;100696.00;;;14.06;80.00
46598;BME280;32318;48.858;8.252;2022-10-13T10:03:37;100686.88;;;14.15;80.04
46598;BME280;32318;48.858;8.252;2022-10-13T10:11:40;100681.41;;;14.32;79.65
46598;BME280;32318;48.858;8.252;2022-10-13T10:20:02;100665.31;;;14.55;78.98
46598;BME280;32318;48.858;8.252;2022-10-13T10:45:04;100666.25;;;14.85;78.50
46598;BME280;32318;48.858;8.252;2022-10-13T10:53:19;100657.09;;;14.95;78.25
46598;BME280;32318;48.858;8.252;2022-10-13T11:17:40;100633.25;;;14.92;78.55
46598;BME280;32318;48.858;8.252;2022-10-13T11:25:43;100616.69;;;15.03;78.53
46598;BME280;32318;48.858;8.252;2022-10-13T11:42:12;100598.78;;;15.40;77.23
46598;BME280;32318;48.858;8.252;2022-10-13T11:58:51;100573.94;;;15.75;76.69
46598;BME280;32318;48.858;8.252;2022-10-13T12:06:59;100562.56;;;15.73;76.86
46598;BME280;32318;48.858;8.252;2022-10-13T12:15:00;100550.00;;;15.80;77.02
46598;BME280;32318;48.858;8.252;2022-10-13T12:23:00;100545.34;;;15.89;76.96
46598;BME280;32318;48.858;8.252;2022-10-13T12:31:00;100551.38;;;15.91;76.86
46598;BME280;32318;48.858;8.252;2022-10-13T12:39:06;100543.16;;;15.99;76.94
46598;BME280;32318;48.858;8.252;2022-10-13T12:56:04;100526.28;;;16.12;76.29
46598;BME280;32318;48.858;8.252;2022-10-13T13:04:39;100533.66;;;16.25;76.07
46598;BME280;32318;48.858;8.252;2022-10-13T13:12:37;100530.66;;;16.41;76.28
46598;BME280;32318;48.858;8.252;2022-10-13T13:20:37;100526.56;;;16.45;76.21
46598;BME280;32318;48.858;8.252;2022-10-13T13:28:42;100524.75;;;16.53;75.82
46598;BME280;32318;48.858;8.252;2022-10-13T13:36:43;100529.50;;;16.51;75.99
46598;BME280;32318;48.858;8.252;2022-10-13T13:44:43;100518.28;;;16.47;76.51
46598;BME280;32318;48.858;8.252;2022-10-13T13:52:44;100505.97;;;16.66;76.35
46598;BME280;32318;48.858;8.252;2022-10-13T14:00:44;100516.41;;;16.76;76.31
46598;BME280;32318;48.858;8.252;2022-10-13T14:08:45;100514.13;;;16.80;75.71
46598;BME280;32318;48.858;8.252;2022-10-13T14:16:45;100505.19;;;16.72;75.48
46598;BME280;32318;48.858;8.252;2022-10-13T14:24:46;100487.34;;;16.71;75.71
46598;BME280;32318;48.858;8.252;2022-10-13T14:32:46;100493.06;;;16.61;74.88
46598;BME280;32318;48.858;8.252;2022-10-13T14:40:46;100498.66;;;16.60;74.88
46598;BME280;32318;48.858;8.252;2022-10-13T14:48:47;100502.00;;;16.62;75.28
46598;BME280;32318;48.858;8.252;2022-10-13T14:56:47;100506.38;;;16.63;75.27
46598;BME280;32318;48.858;8.252;2022-10-13T15:04:47;100497.25;;;16.64;74.93
46598;BME280;32318;48.858;8.252;2022-10-13T15:12:48;100496.47;;;16.70;75.39
46598;BME280;32318;48.858;8.252;2022-10-13T15:20:48;100483.28;;;16.89;75.26
46598;BME280;32318;48.858;8.252;2022-10-13T15:28:52;100479.22;;;17.00;74.65
46598;BME280;32318;48.858;8.252;2022-10-13T15:36:55;100486.28;;;17.01;74.61
46598;BME280;32318;48.858;8.252;2022-10-13T15:44:56;100466.56;;;17.07;74.83
46598;BME280;32318;48.858;8.252;2022-10-13T15:52:57;100486.81;;;16.89;74.47
46598;BME280;32318;48.858;8.252;2022-10-13T16:00:58;100483.31;;;16.96;75.08
46598;BME280;32318;48.858;8.252;2022-10-13T16:08:59;100479.81;;;16.95;75.02
46598;BME280;32318;48.858;8.252;2022-10-13T16:16:59;100474.94;;;16.84;75.21
46598;BME280;32318;48.858;8.252;2022-10-13T16:25:00;100472.03;;;16.78;75.13
46598;BME280;32318;48.858;8.252;2022-10-13T16:33:00;100469.34;;;16.78;75.32
46598;BME280;32318;48.858;8.252;2022-10-13T16:41:05;100463.94;;;16.78;75.17
46598;BME280;32318;48.858;8.252;2022-10-13T16:49:05;100460.38;;;16.71;75.22
46598;BME280;32318;48.858;8.252;2022-10-13T16:57:06;100471.13;;;16.65;75.78
46598;BME280;32318;48.858;8.252;2022-10-13T17:05:06;100473.34;;;16.54;76.13
46598;BME280;32318;48.858;8.252;2022-10-13T17:13:06;100479.47;;;16.41;76.40
46598;BME280;32318;48.858;8.252;2022-10-13T17:21:09;100483.41;;;16.39;77.53
46598;BME280;32318;48.858;8.252;2022-10-13T17:29:10;100484.34;;;16.24;78.63
46598;BME280;32318;48.858;8.252;2022-10-13T17:37:11;100489.44;;;16.12;78.85
46598;BME280;32318;48.858;8.252;2022-10-13T17:45:11;100495.56;;;16.06;79.22
46598;BME280;32318;48.858;8.252;2022-10-13T17:53:11;100494.81;;;15.91;79.62
46598;BME280;32318;48.858;8.252;2022-10-13T18:01:25;100498.63;;;15.81;79.51
46598;BME280;32318;48.858;8.252;2022-10-13T18:09:25;100507.03;;;15.72;80.11
46598;BME280;32318;48.858;8.252;2022-10-13T18:17:26;100489.41;;;15.69;80.02
46598;BME280;32318;48.858;8.252;2022-10-13T18:25:26;100488.81;;;15.52;80.78
46598;BME280;32318;48.858;8.252;2022-10-13T18:33:26;100489.97;;;15.43;80.90
46598;BME280;32318;48.858;8.252;2022-10-13T18:41:27;100493.97;;;15.32;81.42
46598;BME280;32318;48.858;8.252;2022-10-13T18:49:27;100502.06;;;15.32;81.12
46598;BME280;32318;48.858;8.252;2022-10-13T18:57:30;100508.66;;;15.29;81.21
46598;BME280;32318;48.858;8.252;2022-10-13T19:05:36;100505.50;;;15.26;81.70
46598;BME280;32318;48.858;8.252;2022-10-13T19:13:37;100512.28;;;15.21;81.84
46598;BME280;32318;48.858;8.252;2022-10-13T19:21:38;100506.19;;;15.13;80.95
46598;BME280;32318;48.858;8.252;2022-10-13T19:29:39;100506.25;;;15.04;80.96
46598;BME280;32318;48.858;8.252;2022-10-13T19:37:39;100507.19;;;14.97;81.81
46598;BME280;32318;48.858;8.252;2022-10-13T19:45:47;100512.38;;;14.98;82.28
46598;BME280;32318;48.858;8.252;2022-10-13T19:53:48;100506.91;;;14.92;82.29
46598;BME280;32318;48.858;8.252;2022-10-13T20:01:48;100515.38;;;14.88;82.85
46598;BME280;32318;48.858;8.252;2022-10-13T20:09:49;100509.34;;;14.86;82.89
46598;BME280;32318;48.858;8.252;2022-10-13T20:17:50;100512.31;;;14.77;83.08
46598;BME280;32318;48.858;8.252;2022-10-13T20:25:50;100511.38;;;14.69;83.29
46598;BME280;32318;48.858;8.252;2022-10-13T20:33:55;100498.47;;;14.65;82.90
46598;BME280;32318;48.858;8.252;2022-10-13T20:41:56;100502.88;;;14.57;82.75
46598;BME280;32318;48.858;8.252;2022-10-13T20:50:00;100501.59;;;14.53;82.78
46598;BME280;32318;48.858;8.252;2022-10-13T20:58:00;100495.75;;;14.50;82.70
46598;BME280;32318;48.858;8.252;2022-10-13T21:06:02;100502.69;;;14.44;82.71
46598;BME280;32318;48.858;8.252;2022-10-13T21:14:02;100497.06;;;14.39;82.70
46598;BME280;32318;48.858;8.252;2022-10-13T21:22:05;100502.31;;;14.32;82.98
46598;BME280;32318;48.858;8.252;2022-10-13T21:30:06;100507.84;;;14.31;82.91
46598;BME280;32318;48.858;8.252;2022-10-13T21:38:07;100514.06;;;14.31;82.82
46598;BME280;32318;48.858;8.252;2022-10-13T21:46:11;100506.91;;;14.23;83.07
46598;BME280;32318;48.858;8.252;2022-10-13T21:54:11;100514.69;;;14.18;83.42
46598;BME280;32318;48.858;8.252;2022-10-13T22:02:12;100507.72;;;14.09;83.34
46598;BME280;32318;48.858;8.252;2022-10-13T22:10:12;100517.78;;;14.07;83.18
46598;BME280;32318;48.858;8.252;2022-10-13T22:18:12;100518.19;;;14.04;83.38
46598;BME280;32318;48.858;8.252;2022-10-13T22:26:14;100523.34;;;14.05;83.50
46598;BME280;32318;48.858;8.252;2022-10-13T22:34:16;100515.56;;;13.95;83.78
46598;BME280;32318;48.858;8.252;2022-10-13T22:42:16;100504.38;;;13.84;83.63
46598;BME280;32318;48.858;8.252;2022-10-13T22:50:17;100498.72;;;13.78;83.74
46598;BME280;32318;48.858;8.252;2022-10-13T22:58:18;100489.19;;;13.76;84.08
46598;BME280;32318;48.858;8.252;2022-10-13T23:06:21;100492.53;;;13.78;83.87
46598;BME280;32318;48.858;8.252;2022-10-13T23:14:21;100484.97;;;13.82;83.55
46598;BME280;32318;48.858;8.252;2022-10-13T23:22:22;100483.94;;;13.83;83.34
46598;BME280;32318;48.858;8.252;2022-10-13T23:30:22;100471.53;;;13.82;83.32
46598;BME280;32318;48.858;8.252;2022-10-13T23:38:23;100485.59;;;13.84;83.41
46598;BME280;32318;48.858;8.252;2022-10-13T23:46:23;100484.03;;;13.89;83.29
46598;BME280;32318;48.858;8.252;2022-10-13T23:54:24;100483.03;;;13.90;83.46
